Church Fenton, United Kingdom

1:53 AM GMT on February 23, 2017 (GMT +0000)
Yorkie9668 | | Change Station

Elev 43 ft 53.80 °N, 1.25 °W | Updated 28 seconds ago

Rain
Rain
43.2 °F
Feels Like 43 °F
N
0.0
Wind Variable Wind from SW
Gusts 0.0 mph

Today
High -- | Low -- °F
--% Chance of Precip.
Yesterday
High -- | Low -- °F
Precip. -- in
Pressure 29.42 in
Visibility 1.2 miles
Clouds Overcast 100 ft
Windchill 43 °F
Dew Point 41 °F
Humidity 93%
Rainfall 0.15 in
Snow Depth Not available.
7:06 AM 5:30 PM
Waning Crescent, 13% visible
METAR EGNM 230120Z 15008KT 120V180 2000 RA BR OVC001 05/05 Q0996
Pressure 29.42 in
Visibility 1.2 miles
Clouds Overcast 100 ft
Windchill 43 °F
Dew Point 41 °F
Humidity 93%
Rainfall 0.15 in
Snow Depth Not available.
7:06 AM 5:30 PM
Waning Crescent, 13% visible
METAR EGNM 230120Z 15008KT 120V180 2000 RA BR OVC001 05/05 Q0996

Get Your Daily Forecast Email!

Thanks for signing up!

Be on the lookout for a verification email in your inbox.

You'll start receiving the daily forecast at 8 AM.

×

10-Day Weather Forecast

×

Almanac

Astronomy

Feb. 23, 2017 Rise Set
Actual Time
Civil Twilight
Nautical Twilight
Astronomical Twilight
Moon
Length of Visible Light
Length of Day
Tomorrow will be .
, % of the Moon is Illuminated

Today's Extremes

Country Highs Country Lows

Community

WunderPhotos

Upload Photos

1,962,540 photos uploaded!

WunderBlog® & News

Nearby

Air Quality

  Air Quality AQ Index Pollutant
Not available.

Snow Depth

Station Depth Elevation

Earthquake Activity

City Distance Mag. Time & Date
Minimum magnitude displayed is 2.5.

Coastal Water Temperatures

Place Temperature

Stations

Nearby Weather Stations

Station Location Temp. Windchill Dew Point Humidity Wind Precip. Elev Updated Type